createdAt,value
2017-07-25T00:00:36.652Z,17.3
2017-07-25T00:01:36.657Z,17.32
2017-07-25T00:02:36.689Z,17.35
2017-07-25T00:03:36.711Z,17.3
2017-07-25T00:04:36.758Z,17.36
2017-07-25T00:05:36.787Z,17.35
2017-07-25T00:06:36.842Z,17.45
2017-07-25T00:07:36.885Z,17.43
2017-07-25T00:08:36.903Z,17.47
2017-07-25T00:09:36.925Z,17.46
2017-07-25T00:10:36.973Z,17.4
2017-07-25T00:11:37.038Z,17.46
2017-07-25T00:12:37.016Z,17.49
2017-07-25T00:13:37.064Z,17.46
2017-07-25T00:14:37.102Z,17.39
2017-07-25T00:15:37.140Z,17.47
2017-07-25T00:16:37.187Z,17.46
2017-07-25T00:17:37.193Z,17.43
2017-07-25T00:18:37.247Z,17.42
2017-07-25T00:19:37.292Z,17.5
2017-07-25T00:20:37.313Z,17.46
2017-07-25T00:21:37.323Z,17.5
2017-07-25T00:22:37.384Z,17.42
2017-07-25T00:23:37.410Z,17.47
2017-07-25T00:24:37.450Z,17.43
2017-07-25T00:25:37.487Z,17.43
2017-07-25T00:26:37.520Z,17.47
2017-07-25T00:27:37.552Z,17.46
2017-07-25T00:28:37.572Z,17.47
2017-07-25T00:29:37.606Z,17.43
2017-07-25T00:30:37.660Z,17.32
2017-07-25T00:31:37.696Z,17.4
2017-07-25T00:32:37.711Z,17.32
2017-07-25T00:33:38.569Z,17.46
2017-07-25T00:34:37.793Z,17.49
2017-07-25T00:35:37.814Z,17.46
2017-07-25T00:36:37.856Z,17.46
2017-07-25T00:37:37.931Z,17.49
2017-07-25T00:38:38.422Z,17.42
2017-07-25T00:39:38.853Z,17.45
2017-07-25T00:40:38.001Z,17.42
2017-07-25T00:41:38.016Z,17.39
2017-07-25T00:42:38.062Z,17.43
2017-07-25T00:43:38.106Z,17.43
2017-07-25T00:44:38.129Z,17.49
2017-07-25T00:45:38.168Z,17.39
2017-07-25T00:46:38.209Z,17.43
2017-07-25T00:47:38.226Z,17.36
2017-07-25T00:48:38.270Z,17.45
2017-07-25T00:49:38.309Z,17.45
2017-07-25T00:50:38.343Z,17.32
2017-07-25T00:51:38.377Z,17.5
2017-07-25T00:52:38.405Z,17.52
2017-07-25T00:53:38.444Z,17.5
2017-07-25T00:54:38.483Z,17.46
2017-07-25T00:55:38.516Z,17.49
2017-07-25T00:56:38.561Z,17.5
2017-07-25T00:57:38.583Z,17.5
2017-07-25T00:58:38.618Z,17.5
2017-07-25T00:59:38.644Z,17.5
2017-07-25T01:00:38.657Z,17.49
2017-07-25T01:01:38.739Z,17.45
2017-07-25T01:02:38.770Z,17.46
2017-07-25T01:03:38.769Z,17.46
2017-07-25T01:04:38.836Z,17.47
2017-07-25T01:05:38.836Z,17.54
2017-07-25T01:06:38.918Z,17.52
2017-07-25T01:07:38.934Z,17.49
2017-07-25T01:08:38.957Z,17.52
2017-07-25T01:09:38.990Z,17.49
2017-07-25T01:10:39.031Z,17.49
2017-07-25T01:11:39.038Z,17.47
2017-07-25T01:12:39.094Z,17.49
2017-07-25T01:13:39.116Z,17.5
2017-07-25T01:14:39.150Z,17.42
2017-07-25T01:15:39.197Z,17.46
2017-07-25T01:16:39.240Z,17.43
2017-07-25T01:17:39.270Z,17.43
2017-07-25T01:18:39.289Z,17.54
2017-07-25T01:19:39.344Z,17.47
2017-07-25T01:20:39.377Z,17.46
2017-07-25T01:21:39.406Z,17.49
2017-07-25T01:22:39.444Z,17.5
2017-07-25T01:23:39.453Z,17.57
2017-07-25T01:24:39.511Z,17.49
2017-07-25T01:25:39.538Z,17.54
2017-07-25T01:26:39.578Z,17.6
2017-07-25T01:27:39.616Z,17.57
2017-07-25T01:28:39.648Z,17.57
2017-07-25T01:29:39.656Z,17.58
2017-07-25T01:30:39.716Z,17.55
2017-07-25T01:31:39.735Z,17.57
2017-07-25T01:32:39.788Z,17.65
2017-07-25T01:33:39.797Z,17.6
2017-07-25T01:34:39.884Z,17.55
2017-07-25T01:35:39.882Z,17.57
2017-07-25T01:36:39.921Z,17.74
2017-07-25T01:37:39.950Z,17.66
2017-07-25T01:38:39.967Z,17.79
2017-07-25T01:39:40.014Z,17.71
2017-07-25T01:40:40.059Z,17.79
2017-07-25T01:41:40.080Z,17.73
2017-07-25T01:42:40.129Z,17.83
2017-07-25T01:43:40.166Z,17.81
2017-07-25T01:44:40.180Z,17.81
2017-07-25T01:45:40.234Z,17.71
2017-07-25T01:46:40.261Z,17.55
2017-07-25T01:47:40.289Z,17.54
2017-07-25T01:48:40.341Z,17.42
2017-07-25T01:49:40.368Z,17.28
2017-07-25T01:50:40.365Z,17.32
2017-07-25T01:51:40.445Z,17.28
2017-07-25T01:52:40.477Z,17.18
2017-07-25T01:53:40.510Z,17.28
2017-07-25T01:54:40.545Z,17.17
2017-07-25T01:55:40.576Z,17.13
2017-07-25T01:56:40.611Z,17.13
2017-07-25T01:57:40.625Z,17.07
2017-07-25T01:58:40.677Z,17.06
2017-07-25T01:59:40.700Z,17.13
2017-07-25T02:00:40.745Z,17.05
2017-07-25T02:01:40.798Z,17.06
2017-07-25T02:02:40.830Z,17.03
2017-07-25T02:03:40.848Z,16.92
2017-07-25T02:04:40.858Z,16.95
2017-07-25T02:05:40.921Z,16.97
2017-07-25T02:06:41.007Z,16.91
2017-07-25T02:07:40.975Z,16.95
2017-07-25T02:08:40.997Z,16.95
2017-07-25T02:09:41.053Z,16.77
2017-07-25T02:10:41.063Z,16.9
2017-07-25T02:11:41.113Z,16.8
2017-07-25T02:12:41.173Z,16.9
2017-07-25T02:13:41.177Z,16.97
2017-07-25T02:14:41.223Z,16.87
2017-07-25T02:15:41.251Z,16.84
2017-07-25T02:16:41.264Z,16.87
2017-07-25T02:17:41.318Z,16.82
2017-07-25T02:18:41.359Z,16.81
2017-07-25T02:19:41.389Z,16.82
2017-07-25T02:20:41.428Z,16.9
2017-07-25T02:21:41.459Z,16.82
2017-07-25T02:22:41.475Z,16.69
2017-07-25T02:23:41.521Z,16.73
2017-07-25T02:24:41.544Z,16.77
2017-07-25T02:25:41.596Z,16.76
2017-07-25T02:26:41.618Z,16.69
2017-07-25T02:27:41.663Z,16.7
2017-07-25T02:28:41.667Z,16.72
2017-07-25T02:29:41.707Z,16.81
2017-07-25T02:30:41.750Z,16.73
2017-07-25T02:31:41.781Z,16.73
2017-07-25T02:32:41.836Z,16.81
2017-07-25T02:33:41.860Z,16.81
2017-07-25T02:34:41.875Z,16.76
2017-07-25T02:35:41.911Z,16.74
2017-07-25T02:36:41.954Z,16.76
2017-07-25T02:37:41.988Z,16.67
2017-07-25T02:38:41.998Z,16.66
2017-07-25T02:39:42.066Z,16.7
2017-07-25T02:40:42.089Z,16.69
2017-07-25T02:41:42.117Z,16.73
2017-07-25T02:42:42.164Z,16.72
2017-07-25T02:43:42.199Z,16.81
2017-07-25T02:44:42.216Z,16.76
2017-07-25T02:45:42.279Z,16.73
2017-07-25T02:46:42.288Z,16.74
2017-07-25T02:47:42.300Z,16.76
2017-07-25T02:48:42.344Z,16.69
2017-07-25T02:49:42.384Z,16.7
2017-07-25T02:50:42.412Z,16.67
2017-07-25T02:51:42.456Z,16.7
2017-07-25T02:52:42.490Z,16.73
2017-07-25T02:53:42.512Z,16.7
2017-07-25T02:54:42.550Z,16.63
2017-07-25T02:55:42.564Z,16.67
2017-07-25T02:56:42.615Z,16.66
2017-07-25T02:57:42.631Z,16.69
2017-07-25T02:58:42.702Z,16.67
2017-07-25T02:59:42.715Z,16.74
2017-07-25T03:00:42.755Z,16.76
2017-07-25T03:01:42.791Z,16.7
2017-07-25T03:02:42.812Z,16.81
2017-07-25T03:03:42.852Z,16.74
2017-07-25T03:04:42.897Z,16.74
2017-07-25T03:05:42.913Z,16.76
2017-07-25T03:06:42.969Z,16.84
2017-07-25T03:07:42.986Z,16.74
2017-07-25T03:08:43.017Z,16.72
2017-07-25T03:09:43.049Z,16.73
2017-07-25T03:10:43.079Z,16.81
2017-07-25T03:11:43.114Z,16.72
2017-07-25T03:12:43.134Z,16.74
2017-07-25T03:13:43.182Z,16.74
2017-07-25T03:14:43.214Z,16.73
2017-07-25T03:15:43.241Z,16.63
2017-07-25T03:16:43.265Z,16.7
2017-07-25T03:17:43.297Z,16.67
2017-07-25T03:18:43.348Z,16.7
2017-07-25T03:19:43.387Z,16.77
2017-07-25T03:20:43.410Z,16.69
2017-07-25T03:21:43.443Z,16.69
2017-07-25T03:22:43.469Z,16.65
2017-07-25T03:23:43.490Z,16.66
2017-07-25T03:24:43.541Z,16.55
2017-07-25T03:25:43.584Z,16.59
2017-07-25T03:26:43.613Z,16.62
2017-07-25T03:27:43.615Z,16.57
2017-07-25T03:28:43.671Z,16.65
2017-07-25T03:29:43.709Z,16.57
2017-07-25T03:30:43.755Z,16.57
2017-07-25T03:31:43.758Z,16.59
2017-07-25T03:32:43.810Z,16.59
2017-07-25T03:33:43.841Z,16.58
2017-07-25T03:34:43.881Z,16.57
2017-07-25T03:35:43.894Z,16.66
2017-07-25T03:36:43.941Z,16.65
2017-07-25T03:37:43.981Z,16.59
2017-07-25T03:38:43.978Z,16.59
2017-07-25T03:39:44.035Z,16.63
2017-07-25T03:40:44.081Z,16.58
2017-07-25T03:41:44.080Z,16.63
2017-07-25T03:42:44.144Z,16.63
2017-07-25T03:43:44.176Z,16.66
2017-07-25T03:44:44.197Z,16.55
2017-07-25T03:45:44.231Z,16.57
2017-07-25T03:46:44.278Z,16.57
2017-07-25T03:47:44.296Z,16.51
2017-07-25T03:48:44.333Z,16.57
2017-07-25T03:49:44.365Z,16.48
2017-07-25T03:50:44.396Z,16.51
2017-07-25T03:51:44.437Z,16.57
2017-07-25T03:52:44.453Z,16.44
2017-07-25T03:53:44.477Z,16.47
2017-07-25T03:54:44.535Z,16.45
2017-07-25T03:55:44.557Z,16.48
2017-07-25T03:56:44.579Z,16.52
2017-07-25T03:57:44.619Z,16.55
2017-07-25T03:58:44.637Z,16.48
2017-07-25T03:59:44.698Z,16.52
2017-07-25T04:00:44.712Z,16.51
2017-07-25T04:01:44.760Z,16.49
2017-07-25T04:02:44.795Z,16.52
2017-07-25T04:03:44.797Z,16.55
2017-07-25T04:04:44.856Z,16.52
2017-07-25T04:05:44.899Z,16.52
2017-07-25T04:06:44.954Z,16.47
2017-07-25T04:07:44.959Z,16.47
2017-07-25T04:08:44.972Z,16.45
2017-07-25T04:09:45.009Z,16.44
2017-07-25T04:10:45.059Z,16.42
2017-07-25T04:11:45.094Z,16.48
2017-07-25T04:12:45.096Z,16.42
2017-07-25T04:13:45.167Z,16.54
2017-07-25T04:14:45.194Z,16.48
2017-07-25T04:15:45.213Z,16.54
2017-07-25T04:16:45.246Z,16.54
2017-07-25T04:17:45.288Z,16.51
2017-07-25T04:18:45.313Z,16.52
2017-07-25T04:19:45.347Z,16.48
2017-07-25T04:20:45.389Z,16.57
2017-07-25T04:21:45.371Z,16.51
2017-07-25T04:22:45.455Z,16.51
2017-07-25T04:23:45.483Z,16.49
2017-07-25T04:24:45.500Z,16.54
2017-07-25T04:25:45.544Z,16.58
2017-07-25T04:26:45.583Z,16.58
2017-07-25T04:27:45.597Z,16.55
2017-07-25T04:28:45.645Z,16.52
2017-07-25T04:29:45.677Z,16.59
2017-07-25T04:30:45.678Z,16.65
2017-07-25T04:31:45.736Z,16.48
2017-07-25T04:32:45.767Z,16.57
2017-07-25T04:33:45.769Z,16.55
2017-07-25T04:34:45.842Z,16.58
2017-07-25T04:35:45.871Z,16.62
2017-07-25T04:36:45.877Z,16.72
2017-07-25T04:37:45.918Z,16.66
2017-07-25T04:38:45.958Z,16.67
2017-07-25T04:39:45.985Z,16.73
2017-07-25T04:40:46.010Z,16.76
2017-07-25T04:41:46.073Z,16.76
2017-07-25T04:42:46.090Z,16.7
2017-07-25T04:43:46.116Z,16.72
2017-07-25T04:44:46.167Z,16.82
2017-07-25T04:45:46.204Z,16.77
2017-07-25T04:46:46.230Z,16.7
2017-07-25T04:47:46.260Z,16.73
2017-07-25T04:48:46.255Z,16.76
2017-07-25T04:49:46.309Z,16.8
2017-07-25T04:50:46.359Z,16.84
2017-07-25T04:51:46.381Z,16.81
2017-07-25T04:52:46.449Z,16.8
2017-07-25T04:53:46.442Z,16.88
2017-07-25T04:54:46.506Z,16.92
2017-07-25T04:55:46.529Z,16.91
2017-07-25T04:56:46.578Z,16.92
2017-07-25T04:57:46.575Z,16.87
2017-07-25T04:58:46.634Z,16.84
2017-07-25T04:59:46.637Z,16.91
2017-07-25T05:00:46.782Z,16.88
2017-07-25T05:01:46.735Z,16.95
2017-07-25T05:02:46.748Z,16.91
2017-07-25T05:03:46.910Z,16.94
2017-07-25T05:04:46.831Z,16.82
2017-07-25T05:05:46.840Z,16.91
2017-07-25T05:06:46.890Z,16.77
2017-07-25T05:07:46.922Z,16.92
2017-07-25T05:08:46.969Z,16.84
2017-07-25T05:09:46.998Z,16.82
2017-07-25T05:10:47.025Z,16.77
2017-07-25T05:11:47.050Z,16.81
2017-07-25T05:12:47.097Z,16.76
2017-07-25T05:13:47.114Z,16.8
2017-07-25T05:14:47.158Z,16.81
2017-07-25T05:15:47.208Z,16.74
2017-07-25T05:16:47.210Z,16.69
2017-07-25T05:17:47.270Z,16.72
2017-07-25T05:18:47.289Z,16.74
2017-07-25T05:19:47.331Z,16.72
2017-07-25T05:20:48.297Z,16.73
2017-07-25T05:21:47.572Z,16.7
2017-07-25T05:22:47.411Z,16.76
2017-07-25T05:23:47.459Z,16.7
2017-07-25T05:24:47.472Z,16.81
2017-07-25T05:25:47.530Z,16.77
2017-07-25T05:26:47.518Z,16.72
2017-07-25T05:27:47.582Z,16.73
2017-07-25T05:28:47.625Z,16.76
2017-07-25T05:29:47.665Z,16.76
2017-07-25T05:30:47.690Z,16.82
2017-07-25T05:31:47.732Z,16.8
2017-07-25T05:32:47.770Z,16.81
2017-07-25T05:33:47.782Z,16.72
2017-07-25T05:34:47.830Z,16.74
2017-07-25T05:35:47.838Z,16.72
2017-07-25T05:36:47.901Z,16.74
2017-07-25T05:37:47.915Z,16.72
2017-07-25T05:38:47.961Z,16.76
2017-07-25T05:39:47.995Z,16.82
2017-07-25T05:40:48.032Z,16.82
2017-07-25T05:41:48.060Z,16.88
2017-07-25T05:42:48.105Z,16.85
2017-07-25T05:43:48.119Z,16.84
2017-07-25T05:44:48.170Z,16.85
2017-07-25T05:45:48.198Z,16.84
2017-07-25T05:46:48.220Z,16.87
2017-07-25T05:47:48.262Z,16.9
2017-07-25T05:48:48.288Z,16.74
2017-07-25T05:49:48.324Z,16.82
2017-07-25T05:50:48.419Z,16.84
2017-07-25T05:51:48.387Z,16.8
2017-07-25T05:52:48.420Z,16.91
2017-07-25T05:53:48.454Z,16.8
2017-07-25T05:54:48.501Z,16.92
2017-07-25T05:55:48.541Z,16.91
2017-07-25T05:56:48.570Z,16.94
2017-07-25T05:57:48.614Z,16.91
2017-07-25T05:58:48.600Z,16.99
2017-07-25T05:59:48.672Z,16.95
2017-07-25T06:00:48.902Z,16.99
2017-07-25T06:01:48.710Z,16.95
2017-07-25T06:02:48.741Z,16.9
2017-07-25T06:03:48.795Z,16.9
2017-07-25T06:04:48.819Z,16.84
2017-07-25T06:05:48.875Z,16.84
2017-07-25T06:06:48.890Z,16.88
2017-07-25T06:07:48.929Z,16.92
2017-07-25T06:08:48.938Z,16.77
2017-07-25T06:09:49.009Z,16.91
2017-07-25T06:10:49.045Z,16.99
2017-07-25T06:11:49.057Z,16.95
2017-07-25T06:12:49.104Z,16.81
2017-07-25T06:13:49.122Z,16.9
2017-07-25T06:14:49.169Z,16.9
2017-07-25T06:15:49.189Z,16.87
2017-07-25T06:16:49.248Z,16.87
2017-07-25T06:17:49.282Z,16.87
2017-07-25T06:18:49.307Z,16.8
2017-07-25T06:19:49.341Z,16.87
2017-07-25T06:20:49.374Z,16.87
2017-07-25T06:21:49.578Z,16.94
2017-07-25T06:22:49.447Z,16.87
2017-07-25T06:23:49.472Z,16.91
2017-07-25T06:24:49.521Z,16.91
2017-07-25T06:25:49.545Z,16.85
2017-07-25T06:26:49.570Z,16.97
2017-07-25T06:27:49.572Z,16.92
2017-07-25T06:28:49.648Z,16.88
2017-07-25T06:29:49.682Z,16.88
2017-07-25T06:30:49.742Z,16.9
2017-07-25T06:31:49.719Z,16.87
2017-07-25T06:32:49.779Z,16.88
2017-07-25T06:33:49.811Z,16.87
2017-07-25T06:34:49.845Z,16.7
2017-07-25T06:35:49.893Z,16.65
2017-07-25T06:36:49.902Z,16.55
2017-07-25T06:37:49.940Z,16.62
2017-07-25T06:38:49.947Z,16.65
2017-07-25T06:39:49.968Z,16.66
2017-07-25T06:40:50.019Z,16.47
2017-07-25T06:41:50.093Z,16.55
2017-07-25T06:42:50.110Z,16.51
2017-07-25T06:43:50.135Z,16.49
2017-07-25T06:44:50.187Z,16.59
2017-07-25T06:45:50.210Z,16.57
2017-07-25T06:46:50.251Z,16.55
2017-07-25T06:47:50.353Z,16.47
2017-07-25T06:48:50.321Z,16.37
2017-07-25T06:49:50.356Z,16.42
2017-07-25T06:50:50.396Z,16.32
2017-07-25T06:51:50.407Z,16.29
2017-07-25T06:52:50.440Z,16.14
2017-07-25T06:53:50.476Z,16.22
2017-07-25T06:54:50.525Z,16.17
2017-07-25T06:55:50.561Z,16.14
2017-07-25T06:56:50.660Z,16.27
2017-07-25T06:57:50.622Z,16.17
2017-07-25T06:58:50.663Z,16.13
2017-07-25T06:59:50.672Z,16.11
2017-07-25T07:01:00.538Z,16.22
2017-07-25T07:01:50.754Z,16.26
2017-07-25T07:02:50.781Z,16.22
2017-07-25T07:03:50.814Z,16.27
2017-07-25T07:04:50.851Z,16.3
2017-07-25T07:05:50.887Z,16.27
2017-07-25T07:06:50.914Z,16.25
2017-07-25T07:07:50.958Z,16.32
2017-07-25T07:08:50.967Z,16.25
2017-07-25T07:09:50.989Z,16.22
2017-07-25T07:10:51.032Z,16.32
2017-07-25T07:11:51.089Z,16.26
2017-07-25T07:12:51.106Z,16.22
2017-07-25T07:13:51.159Z,16.22
2017-07-25T07:14:51.194Z,16.29
2017-07-25T07:15:51.215Z,16.3
2017-07-25T07:16:51.266Z,16.37
2017-07-25T07:17:51.295Z,16.39
2017-07-25T07:18:51.327Z,16.34
2017-07-25T07:19:51.362Z,16.42
2017-07-25T07:20:51.385Z,16.44
2017-07-25T07:21:51.426Z,16.45
2017-07-25T07:22:51.464Z,16.44
2017-07-25T07:23:51.491Z,16.47
2017-07-25T07:24:51.519Z,16.58
2017-07-25T07:25:51.541Z,16.62
2017-07-25T07:26:51.572Z,16.67
2017-07-25T07:27:51.628Z,16.65
2017-07-25T07:28:51.664Z,16.65
2017-07-25T07:29:51.690Z,16.57
2017-07-25T07:30:51.740Z,16.54
2017-07-25T07:31:51.740Z,16.65
2017-07-25T07:32:51.806Z,16.72
2017-07-25T07:33:51.825Z,16.69
2017-07-25T07:34:51.862Z,16.69
2017-07-25T07:35:51.877Z,16.65
2017-07-25T07:36:51.929Z,16.7
2017-07-25T07:37:51.964Z,16.7
2017-07-25T07:38:51.999Z,16.66
2017-07-25T07:39:52.001Z,16.69
2017-07-25T07:40:52.060Z,16.63
2017-07-25T07:41:52.098Z,16.49
2017-07-25T07:42:52.116Z,16.54
2017-07-25T07:43:52.168Z,16.48
2017-07-25T07:44:52.200Z,16.51
2017-07-25T07:45:52.229Z,16.45
2017-07-25T07:46:52.272Z,16.58
2017-07-25T07:47:52.484Z,16.52
2017-07-25T07:48:52.324Z,16.55
2017-07-25T07:49:52.568Z,16.45
2017-07-25T07:50:52.391Z,16.47
2017-07-25T07:51:52.419Z,16.39
2017-07-25T07:52:52.483Z,16.37
2017-07-25T07:53:52.494Z,16.32
2017-07-25T07:54:52.517Z,16.36
2017-07-25T07:55:52.575Z,16.32
2017-07-25T07:56:52.606Z,16.33
2017-07-25T07:57:52.602Z,16.36
2017-07-25T07:58:52.675Z,16.3
2017-07-25T07:59:52.712Z,16.34
2017-07-25T08:00:52.992Z,16.36
2017-07-25T08:01:52.943Z,16.44
2017-07-25T08:02:52.886Z,16.48
2017-07-25T08:03:52.828Z,16.57
2017-07-25T08:04:52.874Z,16.62
2017-07-25T08:05:52.874Z,16.69
2017-07-25T08:06:52.943Z,16.67
2017-07-25T08:07:52.963Z,16.67
2017-07-25T08:08:53.016Z,16.52
2017-07-25T08:09:53.049Z,16.45
2017-07-25T08:10:53.088Z,16.48
2017-07-25T08:11:53.116Z,16.55
2017-07-25T08:12:53.126Z,16.55
2017-07-25T08:13:53.158Z,16.57
2017-07-25T08:14:53.216Z,16.72
2017-07-25T08:15:53.249Z,16.76
2017-07-25T08:16:53.280Z,16.88
2017-07-25T08:17:53.317Z,16.94
2017-07-25T08:18:53.345Z,16.99
2017-07-25T08:19:53.375Z,17
2017-07-25T08:20:53.418Z,17.03
2017-07-25T08:21:53.526Z,17.09
2017-07-25T08:22:53.492Z,17.13
2017-07-25T08:23:53.514Z,17.24
2017-07-25T08:24:53.535Z,17.38
2017-07-25T08:25:53.569Z,17.27
2017-07-25T08:26:53.605Z,17.24
2017-07-25T08:27:53.653Z,17.18
2017-07-25T08:28:53.692Z,17.32
2017-07-25T08:29:53.724Z,17.35
2017-07-25T08:30:53.738Z,17.38
2017-07-25T08:31:53.792Z,17.38
2017-07-25T08:32:53.836Z,17.3
2017-07-25T08:33:53.858Z,17.3
2017-07-25T08:34:53.907Z,17.21
2017-07-25T08:35:53.926Z,17.15
2017-07-25T08:36:53.946Z,17.15
2017-07-25T08:37:53.996Z,17.02
2017-07-25T08:38:54.042Z,16.91
2017-07-25T08:39:54.052Z,16.9
2017-07-25T08:40:54.200Z,16.95
2017-07-25T08:41:54.136Z,16.95
2017-07-25T08:42:54.151Z,17.09
2017-07-25T08:43:54.201Z,17.18
2017-07-25T08:44:54.244Z,17.18
2017-07-25T08:45:54.377Z,17.25
2017-07-25T08:46:54.291Z,17.32
2017-07-25T08:47:54.326Z,17.39
2017-07-25T08:48:54.394Z,17.32
2017-07-25T08:49:54.406Z,17.24
2017-07-25T08:50:54.538Z,17.24
2017-07-25T08:51:54.482Z,17.27
2017-07-25T08:52:54.517Z,17.27
2017-07-25T08:53:54.529Z,17.39
2017-07-25T08:54:54.621Z,17.55
2017-07-25T08:55:54.608Z,17.58
2017-07-25T08:56:54.623Z,17.73
2017-07-25T08:57:54.690Z,17.8
2017-07-25T08:58:54.730Z,17.99
2017-07-25T08:59:54.739Z,18.11
2017-07-25T09:00:54.838Z,18.24
2017-07-25T09:01:54.877Z,18.39
2017-07-25T09:02:54.860Z,18.51
2017-07-25T09:03:54.949Z,18.57
2017-07-25T09:04:54.904Z,18.59
2017-07-25T09:05:54.943Z,18.68
2017-07-25T09:06:55.201Z,18.82
2017-07-25T09:07:55.050Z,19.02
2017-07-25T09:08:55.061Z,19.3
2017-07-25T09:09:55.086Z,19.37
2017-07-25T09:10:55.140Z,19.52
2017-07-25T09:11:55.147Z,19.52
2017-07-25T09:12:55.206Z,19.65
2017-07-25T09:13:55.248Z,19.63
2017-07-25T09:14:55.267Z,19.61
2017-07-25T09:15:55.309Z,19.57
2017-07-25T09:16:55.326Z,19.57
2017-07-25T09:17:55.393Z,19.49
2017-07-25T09:18:55.404Z,19.35
2017-07-25T09:19:55.433Z,19.28
2017-07-25T09:20:55.498Z,19.15
2017-07-25T09:21:55.527Z,19.16
2017-07-25T09:22:55.558Z,19.05
2017-07-25T09:23:55.604Z,19.02
2017-07-25T09:24:55.651Z,18.96
2017-07-25T09:25:55.684Z,18.97
2017-07-25T09:26:55.714Z,19.09
2017-07-25T09:27:55.716Z,19.05
2017-07-25T09:28:55.764Z,19.05
2017-07-25T09:29:55.815Z,19.02
2017-07-25T09:30:55.840Z,18.91
2017-07-25T09:31:55.860Z,19.02
2017-07-25T09:32:55.910Z,18.99
2017-07-25T09:33:55.915Z,18.96
2017-07-25T09:34:55.984Z,19.06
2017-07-25T09:35:56.026Z,19
2017-07-25T09:36:56.035Z,19.05
2017-07-25T09:37:56.062Z,19.05
2017-07-25T09:38:56.112Z,19.19
2017-07-25T09:39:56.163Z,19.16
2017-07-25T09:40:56.190Z,19.19
2017-07-25T09:41:56.226Z,19.42
2017-07-25T09:42:56.258Z,19.72
2017-07-25T09:43:56.298Z,19.86
2017-07-25T09:44:56.352Z,20.05
2017-07-25T09:45:56.356Z,20.29
2017-07-25T09:46:56.400Z,20.41
2017-07-25T09:47:56.453Z,20.42
2017-07-25T09:48:56.468Z,20.46
2017-07-25T09:49:56.497Z,20.42
2017-07-25T09:50:56.550Z,20.4
2017-07-25T09:51:56.604Z,20.27
2017-07-25T09:52:56.610Z,20.32
2017-07-25T09:53:56.660Z,20.26
2017-07-25T09:54:56.693Z,20.16
2017-07-25T09:55:56.939Z,20.1
2017-07-25T09:56:56.762Z,19.93
2017-07-25T09:57:56.788Z,19.89
2017-07-25T09:58:56.853Z,19.95
2017-07-25T09:59:56.849Z,19.79
2017-07-25T10:00:57.163Z,19.72
2017-07-25T10:01:57.002Z,19.7
2017-07-25T10:02:56.973Z,19.49
2017-07-25T10:03:57.004Z,19.45
2017-07-25T10:04:57.040Z,19.34
2017-07-25T10:05:57.193Z,19.23
2017-07-25T10:06:57.095Z,19.12
2017-07-25T10:07:57.155Z,19.13
2017-07-25T10:08:57.193Z,19.2
2017-07-25T10:09:57.447Z,19.06
2017-07-25T10:10:57.391Z,19.02
2017-07-25T10:11:57.321Z,18.97
2017-07-25T10:12:57.340Z,18.86
2017-07-25T10:13:57.359Z,19.02
2017-07-25T10:14:57.427Z,18.97
2017-07-25T10:15:57.750Z,19.12
2017-07-25T10:16:57.506Z,19.17
2017-07-25T10:17:57.524Z,19.09
2017-07-25T10:18:57.549Z,19.1
2017-07-25T10:19:57.596Z,19.05
2017-07-25T10:20:57.675Z,18.96
2017-07-25T10:21:57.650Z,18.89
2017-07-25T10:22:57.672Z,18.82
2017-07-25T10:23:57.727Z,18.78
2017-07-25T10:24:57.776Z,18.66
2017-07-25T10:25:57.802Z,18.75
2017-07-25T10:26:57.845Z,18.84
2017-07-25T10:27:57.893Z,18.86
2017-07-25T10:28:57.916Z,18.96
2017-07-25T10:29:57.969Z,18.9
2017-07-25T10:30:57.949Z,19
2017-07-25T10:31:58.010Z,19.06
2017-07-25T10:32:58.059Z,19.06
2017-07-25T10:33:58.306Z,19.2
2017-07-25T10:34:58.136Z,19.24
2017-07-25T10:35:58.144Z,19.3
2017-07-25T10:36:58.216Z,19.28
2017-07-25T10:37:58.229Z,19.23
2017-07-25T10:38:58.262Z,19.19
2017-07-25T10:39:58.297Z,19.27
2017-07-25T10:40:58.340Z,19.37
2017-07-25T10:41:58.360Z,19.5
2017-07-25T10:42:58.421Z,19.53
2017-07-25T10:43:58.471Z,19.53
2017-07-25T10:44:58.473Z,19.57
2017-07-25T10:45:58.498Z,19.65
2017-07-25T10:46:58.544Z,19.67
2017-07-25T10:47:58.545Z,19.72
2017-07-25T10:48:58.799Z,19.71
2017-07-25T10:49:58.651Z,19.86
2017-07-25T10:50:58.693Z,19.9
2017-07-25T10:51:58.728Z,20.04
2017-07-25T10:52:58.921Z,20.18
2017-07-25T10:53:58.812Z,20.38
2017-07-25T10:54:58.859Z,20.4
2017-07-25T10:55:58.850Z,20.35
2017-07-25T10:56:58.892Z,20.38
2017-07-25T10:57:58.966Z,20.35
2017-07-25T10:58:58.973Z,20.53
2017-07-25T10:59:59.012Z,20.82
2017-07-25T11:00:59.070Z,21.09
2017-07-25T11:01:59.453Z,21.27
2017-07-25T11:02:59.130Z,21.28
2017-07-25T11:03:59.159Z,21.41
2017-07-25T11:04:59.190Z,21.53
2017-07-25T11:05:59.239Z,21.49
2017-07-25T11:06:59.258Z,21.61
2017-07-25T11:07:59.307Z,21.66
2017-07-25T11:08:59.303Z,21.94
2017-07-25T11:09:59.457Z,22.23
2017-07-25T11:10:59.406Z,22.44
2017-07-25T11:11:59.451Z,22.61
2017-07-25T11:12:59.672Z,23.01
2017-07-25T11:13:59.525Z,23.6
2017-07-25T11:14:59.540Z,24.11
2017-07-25T11:15:59.571Z,24.55
2017-07-25T11:16:59.646Z,25.33
2017-07-25T11:17:59.652Z,25.86
2017-07-25T11:18:59.692Z,26.37
2017-07-25T11:19:59.757Z,26.91
2017-07-25T11:20:59.793Z,27.38
2017-07-25T11:21:59.802Z,27.52
2017-07-25T11:22:59.821Z,27.31
2017-07-25T11:23:59.897Z,27.26
2017-07-25T11:24:59.961Z,27.21
2017-07-25T11:25:59.977Z,27.01
2017-07-25T11:27:00.025Z,27.12
2017-07-25T11:28:00.045Z,27.05
2017-07-25T11:29:00.108Z,26.71
2017-07-25T11:30:00.148Z,26.17
2017-07-25T11:31:00.174Z,25.78
2017-07-25T11:32:00.213Z,25.38
2017-07-25T11:33:00.254Z,25.22
2017-07-25T11:34:00.313Z,25.11
2017-07-25T11:35:00.322Z,24.92
2017-07-25T11:36:00.752Z,24.51
2017-07-25T11:37:00.373Z,24.36
2017-07-25T11:38:00.413Z,23.97
2017-07-25T11:39:00.482Z,23.79
2017-07-25T11:40:00.514Z,23.92
2017-07-25T11:41:00.558Z,24.24
2017-07-25T11:42:00.767Z,24.58
2017-07-25T11:43:00.624Z,24.85
2017-07-25T11:44:00.677Z,25.08
2017-07-25T11:45:00.698Z,24.96
2017-07-25T11:46:00.738Z,24.93
2017-07-25T11:47:00.777Z,24.78
2017-07-25T11:48:00.830Z,24.55
2017-07-25T11:49:01.089Z,24.7
2017-07-25T11:50:00.897Z,24.78
2017-07-25T11:51:00.946Z,24.75
2017-07-25T11:52:00.995Z,24.69
2017-07-25T11:53:01.038Z,24.74
2017-07-25T11:54:01.069Z,24.9
2017-07-25T11:55:01.100Z,24.67
2017-07-25T11:56:01.103Z,24.64
2017-07-25T11:57:01.173Z,24.7
2017-07-25T11:58:01.219Z,24.89
2017-07-25T11:59:01.251Z,25.05
2017-07-25T12:00:01.277Z,25.15
2017-07-25T12:01:01.537Z,25.33
2017-07-25T12:02:07.633Z,25.39
2017-07-25T12:03:01.394Z,25.42
2017-07-25T12:04:01.435Z,25.37
2017-07-25T12:05:01.519Z,25.37
2017-07-25T12:06:01.522Z,25.33
2017-07-25T12:07:01.555Z,25.17
2017-07-25T12:08:01.581Z,25.04
2017-07-25T12:09:01.629Z,25.04
2017-07-25T12:10:01.670Z,24.97
2017-07-25T12:11:01.713Z,25
2017-07-25T12:12:01.741Z,24.9
2017-07-25T12:13:01.779Z,24.89
2017-07-25T12:14:01.827Z,24.7
2017-07-25T12:15:02.083Z,24.49
2017-07-25T12:16:01.902Z,24.34
2017-07-25T12:17:01.963Z,23.99
2017-07-25T12:18:01.983Z,23.79
2017-07-25T12:19:02.031Z,23.75
2017-07-25T12:20:02.139Z,23.72
2017-07-25T12:21:02.289Z,23.78
2017-07-25T12:22:02.138Z,23.79
2017-07-25T12:23:02.175Z,23.74
2017-07-25T12:24:02.228Z,23.59
2017-07-25T12:25:02.272Z,23.37
2017-07-25T12:26:02.262Z,23.32
2017-07-25T12:27:02.351Z,23.14
2017-07-25T12:28:02.380Z,23.09
2017-07-25T12:29:02.439Z,23.01
2017-07-25T12:30:02.440Z,22.92
2017-07-25T12:31:02.454Z,22.96
2017-07-25T12:32:02.523Z,23.04
2017-07-25T12:33:02.560Z,23.03
2017-07-25T12:34:02.579Z,23.16
2017-07-25T12:35:02.636Z,23.14
2017-07-25T12:36:02.684Z,23.19
2017-07-25T12:37:02.681Z,23.25
2017-07-25T12:38:02.737Z,23.44
2017-07-25T12:39:02.794Z,23.34
2017-07-25T12:40:02.797Z,23.5
2017-07-25T12:41:02.870Z,23.64
2017-07-25T12:42:02.894Z,23.62
2017-07-25T12:43:03.111Z,23.64
2017-07-25T12:44:02.974Z,23.62
2017-07-25T12:45:03.011Z,23.66
2017-07-25T12:46:03.101Z,23.53
2017-07-25T12:47:03.304Z,23.63
2017-07-25T12:48:03.145Z,23.66
2017-07-25T12:49:03.193Z,23.84
2017-07-25T12:50:03.234Z,23.85
2017-07-25T12:51:03.405Z,23.84
2017-07-25T12:52:03.303Z,23.84
2017-07-25T12:53:03.328Z,23.81
2017-07-25T12:54:03.378Z,23.84
2017-07-25T12:55:03.395Z,23.81
2017-07-25T12:56:03.474Z,23.79